sensor_id;sensor_type;location;lat;lon;timestamp;temperature;humidity
48208;DHT22;33997;53.278;9.708;2022-09-09T00:01:08;14.00;99.90
48208;DHT22;33997;53.278;9.708;2022-09-09T00:06:33;14.00;99.90
48208;DHT22;33997;53.278;9.708;2022-09-09T00:09:08;14.00;99.90
48208;DHT22;33997;53.278;9.708;2022-09-09T00:11:51;14.00;99.90
48208;DHT22;33997;53.278;9.708;2022-09-09T00:17:09;13.90;99.90
48208;DHT22;33997;53.278;9.708;2022-09-09T00:23:05;13.80;99.90
48208;DHT22;33997;53.278;9.708;2022-09-09T00:25:40;13.70;99.90
48208;DHT22;33997;53.278;9.708;2022-09-09T00:28:19;13.60;99.90
48208;DHT22;33997;53.278;9.708;2022-09-09T00:30:46;13.60;99.90
48208;DHT22;33997;53.278;9.708;2022-09-09T00:33:15;13.50;99.90
48208;DHT22;33997;53.278;9.708;2022-09-09T00:35:46;13.50;99.90
48208;DHT22;33997;53.278;9.708;2022-09-09T00:38:19;13.50;99.90
48208;DHT22;33997;53.278;9.708;2022-09-09T00:40:58;13.50;99.90
48208;DHT22;33997;53.278;9.708;2022-09-09T00:43:35;13.40;99.90
48208;DHT22;33997;53.278;9.708;2022-09-09T00:46:14;13.40;99.90
48208;DHT22;33997;53.278;9.708;2022-09-09T00:48:59;13.40;99.90
48208;DHT22;33997;53.278;9.708;2022-09-09T00:54:22;13.40;99.90
48208;DHT22;33997;53.278;9.708;2022-09-09T01:00:44;13.30;99.90
48208;DHT22;33997;53.278;9.708;2022-09-09T01:03:03;13.30;99.90
48208;DHT22;33997;53.278;9.708;2022-09-09T01:06:26;13.30;99.90
48208;DHT22;33997;53.278;9.708;2022-09-09T01:08:57;13.40;99.90
48208;DHT22;33997;53.278;9.708;2022-09-09T01:11:25;13.30;99.90
48208;DHT22;33997;53.278;9.708;2022-09-09T01:16:47;13.30;99.90
48208;DHT22;33997;53.278;9.708;2022-09-09T01:19:21;13.30;99.90
48208;DHT22;33997;53.278;9.708;2022-09-09T01:22:10;13.30;99.90
48208;DHT22;33997;53.278;9.708;2022-09-09T01:27:35;13.40;99.90
48208;DHT22;33997;53.278;9.708;2022-09-09T01:30:08;13.40;99.90
48208;DHT22;33997;53.278;9.708;2022-09-09T01:32:48;13.30;99.90
48208;DHT22;33997;53.278;9.708;2022-09-09T01:35:37;13.30;99.90
48208;DHT22;33997;53.278;9.708;2022-09-09T01:38:05;13.30;99.90
48208;DHT22;33997;53.278;9.708;2022-09-09T01:40:31;13.30;99.90
48208;DHT22;33997;53.278;9.708;2022-09-09T01:42:57;13.40;99.90
48208;DHT22;33997;53.278;9.708;2022-09-09T01:45:24;13.40;99.90
48208;DHT22;33997;53.278;9.708;2022-09-09T01:47:51;13.50;99.90
48208;DHT22;33997;53.278;9.708;2022-09-09T01:50:17;13.50;99.90
48208;DHT22;33997;53.278;9.708;2022-09-09T01:52:46;13.50;99.90
48208;DHT22;33997;53.278;9.708;2022-09-09T01:55:12;13.50;99.90
48208;DHT22;33997;53.278;9.708;2022-09-09T01:57:51;13.50;99.90
48208;DHT22;33997;53.278;9.708;2022-09-09T02:00:18;13.60;99.90
48208;DHT22;33997;53.278;9.708;2022-09-09T02:03:03;13.60;99.90
48208;DHT22;33997;53.278;9.708;2022-09-09T02:05:39;13.60;99.90
48208;DHT22;33997;53.278;9.708;2022-09-09T02:08:08;13.60;99.90
48208;DHT22;33997;53.278;9.708;2022-09-09T02:10:42;13.60;99.90
48208;DHT22;33997;53.278;9.708;2022-09-09T02:13:13;13.60;99.90
48208;DHT22;33997;53.278;9.708;2022-09-09T02:15:45;13.60;99.90
48208;DHT22;33997;53.278;9.708;2022-09-09T02:18:13;13.50;99.90
48208;DHT22;33997;53.278;9.708;2022-09-09T02:20:41;13.50;99.90
48208;DHT22;33997;53.278;9.708;2022-09-09T02:23:08;13.40;99.90
48208;DHT22;33997;53.278;9.708;2022-09-09T02:25:37;13.40;99.90
48208;DHT22;33997;53.278;9.708;2022-09-09T02:28:05;13.40;99.90
48208;DHT22;33997;53.278;9.708;2022-09-09T02:30:33;13.30;99.90
48208;DHT22;33997;53.278;9.708;2022-09-09T02:33:01;13.30;99.90
48208;DHT22;33997;53.278;9.708;2022-09-09T02:35:29;13.20;99.90
48208;DHT22;33997;53.278;9.708;2022-09-09T02:37:59;13.20;99.90
48208;DHT22;33997;53.278;9.708;2022-09-09T02:40:26;13.10;99.90
48208;DHT22;33997;53.278;9.708;2022-09-09T02:42:54;13.10;99.90
48208;DHT22;33997;53.278;9.708;2022-09-09T02:45:24;13.10;99.90
48208;DHT22;33997;53.278;9.708;2022-09-09T02:50:34;13.00;99.90
48208;DHT22;33997;53.278;9.708;2022-09-09T02:53:17;13.00;99.90
48208;DHT22;33997;53.278;9.708;2022-09-09T02:55:58;13.00;99.90
48208;DHT22;33997;53.278;9.708;2022-09-09T02:58:24;13.00;99.90
48208;DHT22;33997;53.278;9.708;2022-09-09T03:00:51;13.00;99.90
48208;DHT22;33997;53.278;9.708;2022-09-09T03:03:18;13.00;99.90
48208;DHT22;33997;53.278;9.708;2022-09-09T03:05:45;12.90;99.90
48208;DHT22;33997;53.278;9.708;2022-09-09T03:08:11;13.00;99.90
48208;DHT22;33997;53.278;9.708;2022-09-09T03:10:38;12.90;99.90
48208;DHT22;33997;53.278;9.708;2022-09-09T03:13:05;12.90;99.90
48208;DHT22;33997;53.278;9.708;2022-09-09T03:15:32;12.90;99.90
48208;DHT22;33997;53.278;9.708;2022-09-09T03:17:58;12.90;99.90
48208;DHT22;33997;53.278;9.708;2022-09-09T03:20:26;12.80;99.90
48208;DHT22;33997;53.278;9.708;2022-09-09T03:22:55;12.80;99.90
48208;DHT22;33997;53.278;9.708;2022-09-09T03:25:21;12.80;99.90
48208;DHT22;33997;53.278;9.708;2022-09-09T03:27:49;12.80;99.90
48208;DHT22;33997;53.278;9.708;2022-09-09T03:30:15;12.80;99.90
48208;DHT22;33997;53.278;9.708;2022-09-09T03:32:41;12.80;99.90
48208;DHT22;33997;53.278;9.708;2022-09-09T03:35:07;12.70;99.90
48208;DHT22;33997;53.278;9.708;2022-09-09T03:37:33;12.70;99.90
48208;DHT22;33997;53.278;9.708;2022-09-09T03:39:58;12.70;99.90
48208;DHT22;33997;53.278;9.708;2022-09-09T03:42:25;12.80;99.90
48208;DHT22;33997;53.278;9.708;2022-09-09T03:44:50;12.80;99.90
48208;DHT22;33997;53.278;9.708;2022-09-09T03:47:18;12.80;99.90
48208;DHT22;33997;53.278;9.708;2022-09-09T03:49:43;12.80;99.90
48208;DHT22;33997;53.278;9.708;2022-09-09T03:52:09;12.80;99.90
48208;DHT22;33997;53.278;9.708;2022-09-09T03:54:35;12.70;99.90
48208;DHT22;33997;53.278;9.708;2022-09-09T03:57:01;12.70;99.90
48208;DHT22;33997;53.278;9.708;2022-09-09T03:59:26;12.70;99.90
48208;DHT22;33997;53.278;9.708;2022-09-09T04:01:52;12.60;99.90
48208;DHT22;33997;53.278;9.708;2022-09-09T04:04:18;12.70;99.90
48208;DHT22;33997;53.278;9.708;2022-09-09T04:06:45;12.60;99.90
48208;DHT22;33997;53.278;9.708;2022-09-09T04:09:10;12.60;99.90
48208;DHT22;33997;53.278;9.708;2022-09-09T04:11:36;12.60;99.90
48208;DHT22;33997;53.278;9.708;2022-09-09T04:14:02;12.60;99.90
48208;DHT22;33997;53.278;9.708;2022-09-09T04:16:28;12.60;99.90
48208;DHT22;33997;53.278;9.708;2022-09-09T04:18:53;12.60;99.90
48208;DHT22;33997;53.278;9.708;2022-09-09T04:21:19;12.60;99.90
48208;DHT22;33997;53.278;9.708;2022-09-09T04:23:44;12.60;99.90
48208;DHT22;33997;53.278;9.708;2022-09-09T04:26:10;12.60;99.90
48208;DHT22;33997;53.278;9.708;2022-09-09T04:28:36;12.60;99.90
48208;DHT22;33997;53.278;9.708;2022-09-09T04:31:15;12.60;99.90
48208;DHT22;33997;53.278;9.708;2022-09-09T04:33:42;12.60;99.90
48208;DHT22;33997;53.278;9.708;2022-09-09T04:36:07;12.60;99.90
48208;DHT22;33997;53.278;9.708;2022-09-09T04:38:33;12.50;99.90
48208;DHT22;33997;53.278;9.708;2022-09-09T04:40:59;12.50;99.90
48208;DHT22;33997;53.278;9.708;2022-09-09T04:43:24;12.50;99.90
48208;DHT22;33997;53.278;9.708;2022-09-09T04:45:51;12.50;99.90
48208;DHT22;33997;53.278;9.708;2022-09-09T04:48:17;12.50;99.90
48208;DHT22;33997;53.278;9.708;2022-09-09T04:50:43;12.50;99.90
48208;DHT22;33997;53.278;9.708;2022-09-09T04:53:09;12.60;99.90
48208;DHT22;33997;53.278;9.708;2022-09-09T04:55:35;12.60;99.90
48208;DHT22;33997;53.278;9.708;2022-09-09T04:58:08;12.60;99.90
48208;DHT22;33997;53.278;9.708;2022-09-09T05:00:37;12.60;99.90
48208;DHT22;33997;53.278;9.708;2022-09-09T05:03:06;12.70;99.90
48208;DHT22;33997;53.278;9.708;2022-09-09T05:05:33;12.70;99.90
48208;DHT22;33997;53.278;9.708;2022-09-09T05:08:02;12.80;99.90
48208;DHT22;33997;53.278;9.708;2022-09-09T05:10:28;12.80;99.90
48208;DHT22;33997;53.278;9.708;2022-09-09T05:12:54;12.90;99.90
48208;DHT22;33997;53.278;9.708;2022-09-09T05:15:20;12.90;99.90
48208;DHT22;33997;53.278;9.708;2022-09-09T05:17:46;13.00;99.90
48208;DHT22;33997;53.278;9.708;2022-09-09T05:20:11;13.00;99.90
48208;DHT22;33997;53.278;9.708;2022-09-09T05:22:37;13.00;99.90
48208;DHT22;33997;53.278;9.708;2022-09-09T05:25:03;13.10;99.90
48208;DHT22;33997;53.278;9.708;2022-09-09T05:27:28;13.10;99.90
48208;DHT22;33997;53.278;9.708;2022-09-09T05:29:56;13.10;99.90
48208;DHT22;33997;53.278;9.708;2022-09-09T05:32:22;13.20;99.90
48208;DHT22;33997;53.278;9.708;2022-09-09T05:34:48;13.20;99.90
48208;DHT22;33997;53.278;9.708;2022-09-09T05:37:13;13.20;99.90
48208;DHT22;33997;53.278;9.708;2022-09-09T05:39:39;13.30;99.90
48208;DHT22;33997;53.278;9.708;2022-09-09T05:42:05;13.30;99.90
48208;DHT22;33997;53.278;9.708;2022-09-09T05:44:31;13.30;99.90
48208;DHT22;33997;53.278;9.708;2022-09-09T05:46:56;13.30;99.90
48208;DHT22;33997;53.278;9.708;2022-09-09T05:49:23;13.40;99.90
48208;DHT22;33997;53.278;9.708;2022-09-09T05:51:48;13.40;99.90
48208;DHT22;33997;53.278;9.708;2022-09-09T05:54:15;13.40;99.90
48208;DHT22;33997;53.278;9.708;2022-09-09T05:56:41;13.50;99.90
48208;DHT22;33997;53.278;9.708;2022-09-09T05:59:07;13.50;99.90
48208;DHT22;33997;53.278;9.708;2022-09-09T06:01:35;13.50;99.90
48208;DHT22;33997;53.278;9.708;2022-09-09T06:04:01;13.50;99.90
48208;DHT22;33997;53.278;9.708;2022-09-09T06:06:31;13.60;99.90
48208;DHT22;33997;53.278;9.708;2022-09-09T06:09:00;13.60;99.90
48208;DHT22;33997;53.278;9.708;2022-09-09T06:11:28;13.70;99.90
48208;DHT22;33997;53.278;9.708;2022-09-09T06:13:56;13.80;99.90
48208;DHT22;33997;53.278;9.708;2022-09-09T06:16:25;13.80;99.90
48208;DHT22;33997;53.278;9.708;2022-09-09T06:18:52;13.90;99.90
48208;DHT22;33997;53.278;9.708;2022-09-09T06:21:21;14.00;99.90
48208;DHT22;33997;53.278;9.708;2022-09-09T06:23:47;14.00;99.80
48208;DHT22;33997;53.278;9.708;2022-09-09T06:26:16;14.10;99.80
48208;DHT22;33997;53.278;9.708;2022-09-09T06:28:46;14.10;99.60
48208;DHT22;33997;53.278;9.708;2022-09-09T06:31:14;14.20;99.60
48208;DHT22;33997;53.278;9.708;2022-09-09T06:33:41;14.20;99.40
48208;DHT22;33997;53.278;9.708;2022-09-09T06:36:11;14.20;99.40
48208;DHT22;33997;53.278;9.708;2022-09-09T06:38:38;14.20;99.30
48208;DHT22;33997;53.278;9.708;2022-09-09T06:41:03;14.20;99.20
48208;DHT22;33997;53.278;9.708;2022-09-09T06:43:31;14.20;99.20
48208;DHT22;33997;53.278;9.708;2022-09-09T06:45:58;14.20;99.30
48208;DHT22;33997;53.278;9.708;2022-09-09T06:48:24;14.30;99.30
48208;DHT22;33997;53.278;9.708;2022-09-09T06:51:07;14.30;99.00
48208;DHT22;33997;53.278;9.708;2022-09-09T06:53:34;14.40;99.00
48208;DHT22;33997;53.278;9.708;2022-09-09T06:56:25;14.30;98.90
48208;DHT22;33997;53.278;9.708;2022-09-09T06:58:52;14.30;98.60
48208;DHT22;33997;53.278;9.708;2022-09-09T07:01:23;14.40;98.70
48208;DHT22;33997;53.278;9.708;2022-09-09T07:03:51;14.50;98.80
48208;DHT22;33997;53.278;9.708;2022-09-09T07:06:25;14.50;98.80
48208;DHT22;33997;53.278;9.708;2022-09-09T07:08:55;14.50;98.60
48208;DHT22;33997;53.278;9.708;2022-09-09T07:11:23;14.50;98.40
48208;DHT22;33997;53.278;9.708;2022-09-09T07:13:49;14.60;98.10
48208;DHT22;33997;53.278;9.708;2022-09-09T07:16:19;14.70;98.30
48208;DHT22;33997;53.278;9.708;2022-09-09T07:18:47;14.80;97.90
48208;DHT22;33997;53.278;9.708;2022-09-09T07:21:14;14.80;97.90
48208;DHT22;33997;53.278;9.708;2022-09-09T07:23:40;14.90;97.80
48208;DHT22;33997;53.278;9.708;2022-09-09T07:26:16;15.00;98.00
48208;DHT22;33997;53.278;9.708;2022-09-09T07:28:44;15.20;97.60
48208;DHT22;33997;53.278;9.708;2022-09-09T07:31:15;15.30;97.20
48208;DHT22;33997;53.278;9.708;2022-09-09T07:33:42;15.50;97.10
48208;DHT22;33997;53.278;9.708;2022-09-09T07:36:10;15.60;97.10
48208;DHT22;33997;53.278;9.708;2022-09-09T07:38:45;15.70;96.90
48208;DHT22;33997;53.278;9.708;2022-09-09T07:41:14;15.70;96.00
48208;DHT22;33997;53.278;9.708;2022-09-09T07:43:42;15.90;96.00
48208;DHT22;33997;53.278;9.708;2022-09-09T07:46:09;16.00;95.60
48208;DHT22;33997;53.278;9.708;2022-09-09T07:48:35;16.10;95.80
48208;DHT22;33997;53.278;9.708;2022-09-09T07:51:11;16.10;95.00
48208;DHT22;33997;53.278;9.708;2022-09-09T07:53:38;16.30;95.20
48208;DHT22;33997;53.278;9.708;2022-09-09T07:56:09;16.50;95.40
48208;DHT22;33997;53.278;9.708;2022-09-09T07:58:36;16.60;95.40
48208;DHT22;33997;53.278;9.708;2022-09-09T08:01:07;16.70;94.90
48208;DHT22;33997;53.278;9.708;2022-09-09T08:03:33;16.60;94.50
48208;DHT22;33997;53.278;9.708;2022-09-09T08:06:03;16.60;94.20
48208;DHT22;33997;53.278;9.708;2022-09-09T08:08:30;16.50;94.20
48208;DHT22;33997;53.278;9.708;2022-09-09T08:11:02;16.50;94.20
48208;DHT22;33997;53.278;9.708;2022-09-09T08:13:28;16.40;94.20
48208;DHT22;33997;53.278;9.708;2022-09-09T08:15:54;16.50;94.80
48208;DHT22;33997;53.278;9.708;2022-09-09T08:18:19;16.30;94.40
48208;DHT22;33997;53.278;9.708;2022-09-09T08:20:45;16.60;95.00
48208;DHT22;33997;53.278;9.708;2022-09-09T08:23:10;16.60;94.70
48208;DHT22;33997;53.278;9.708;2022-09-09T08:25:36;17.00;94.70
48208;DHT22;33997;53.278;9.708;2022-09-09T08:28:01;17.40;94.70
48208;DHT22;33997;53.278;9.708;2022-09-09T08:30:27;17.50;93.60
48208;DHT22;33997;53.278;9.708;2022-09-09T08:32:52;17.50;92.40
48208;DHT22;33997;53.278;9.708;2022-09-09T08:35:18;17.70;92.30
48208;DHT22;33997;53.278;9.708;2022-09-09T08:37:45;17.70;91.20
48208;DHT22;33997;53.278;9.708;2022-09-09T08:40:20;17.70;90.50
48208;DHT22;33997;53.278;9.708;2022-09-09T08:42:52;17.90;90.50
48208;DHT22;33997;53.278;9.708;2022-09-09T08:48:03;17.90;89.80
48208;DHT22;33997;53.278;9.708;2022-09-09T08:50:35;17.80;88.60
48208;DHT22;33997;53.278;9.708;2022-09-09T08:53:22;17.80;89.40
48208;DHT22;33997;53.278;9.708;2022-09-09T08:55:55;18.20;89.90
48208;DHT22;33997;53.278;9.708;2022-09-09T08:58:26;18.50;89.20
48208;DHT22;33997;53.278;9.708;2022-09-09T09:01:17;18.70;89.40
48208;DHT22;33997;53.278;9.708;2022-09-09T09:09:48;19.20;87.20
48208;DHT22;33997;53.278;9.708;2022-09-09T09:12:20;19.30;84.60
48208;DHT22;33997;53.278;9.708;2022-09-09T09:14:48;19.50;82.90
48208;DHT22;33997;53.278;9.708;2022-09-09T09:17:19;19.50;82.40
48208;DHT22;33997;53.278;9.708;2022-09-09T09:19:45;19.60;83.40
48208;DHT22;33997;53.278;9.708;2022-09-09T09:22:23;19.70;83.80
48208;DHT22;33997;53.278;9.708;2022-09-09T09:24:56;19.90;81.80
48208;DHT22;33997;53.278;9.708;2022-09-09T09:30:19;19.70;82.80
48208;DHT22;33997;53.278;9.708;2022-09-09T09:33:02;20.10;83.50
48208;DHT22;33997;53.278;9.708;2022-09-09T09:35:30;20.40;80.50
48208;DHT22;33997;53.278;9.708;2022-09-09T09:37:55;20.50;79.60
48208;DHT22;33997;53.278;9.708;2022-09-09T09:40:22;20.30;79.90
48208;DHT22;33997;53.278;9.708;2022-09-09T09:48:02;20.10;78.70
48208;DHT22;33997;53.278;9.708;2022-09-09T09:50:29;19.60;81.00
48208;DHT22;33997;53.278;9.708;2022-09-09T09:52:56;19.70;81.00
48208;DHT22;33997;53.278;9.708;2022-09-09T09:55:23;19.80;81.10
48208;DHT22;33997;53.278;9.708;2022-09-09T09:57:49;19.60;80.60
48208;DHT22;33997;53.278;9.708;2022-09-09T10:00:16;19.70;81.10
48208;DHT22;33997;53.278;9.708;2022-09-09T10:02:45;19.80;82.00
48208;DHT22;33997;53.278;9.708;2022-09-09T10:05:23;19.90;81.00
48208;DHT22;33997;53.278;9.708;2022-09-09T10:08:11;19.70;79.30
48208;DHT22;33997;53.278;9.708;2022-09-09T10:13:26;20.50;80.10
48208;DHT22;33997;53.278;9.708;2022-09-09T10:16:09;20.50;78.50
48208;DHT22;33997;53.278;9.708;2022-09-09T10:18:45;20.90;77.00
48208;DHT22;33997;53.278;9.708;2022-09-09T10:21:28;20.90;76.50
48208;DHT22;33997;53.278;9.708;2022-09-09T10:24:19;21.20;75.90
48208;DHT22;33997;53.278;9.708;2022-09-09T10:27:10;21.10;76.90
48208;DHT22;33997;53.278;9.708;2022-09-09T10:32:30;21.50;74.30
48208;DHT22;33997;53.278;9.708;2022-09-09T10:40:38;21.60;71.50
48208;DHT22;33997;53.278;9.708;2022-09-09T10:43:32;21.40;72.70
48208;DHT22;33997;53.278;9.708;2022-09-09T10:46:34;21.00;73.70
48208;DHT22;33997;53.278;9.708;2022-09-09T10:52:21;21.00;74.20
48208;DHT22;33997;53.278;9.708;2022-09-09T10:54:56;21.60;73.30
48208;DHT22;33997;53.278;9.708;2022-09-09T10:57:36;22.00;72.70
48208;DHT22;33997;53.278;9.708;2022-09-09T11:00:15;21.80;71.70
48208;DHT22;33997;53.278;9.708;2022-09-09T11:02:42;21.50;72.30
48208;DHT22;33997;53.278;9.708;2022-09-09T11:05:45;21.00;72.90
48208;DHT22;33997;53.278;9.708;2022-09-09T11:08:16;21.00;74.00
48208;DHT22;33997;53.278;9.708;2022-09-09T11:10:46;20.90;73.50
48208;DHT22;33997;53.278;9.708;2022-09-09T11:13:49;20.80;73.30
48208;DHT22;33997;53.278;9.708;2022-09-09T11:19:33;21.40;74.30
48208;DHT22;33997;53.278;9.708;2022-09-09T11:22:02;22.50;74.30
48208;DHT22;33997;53.278;9.708;2022-09-09T11:24:31;22.40;68.90
48208;DHT22;33997;53.278;9.708;2022-09-09T11:27:03;22.10;71.70
48208;DHT22;33997;53.278;9.708;2022-09-09T11:38:15;22.30;69.90
48208;DHT22;33997;53.278;9.708;2022-09-09T11:40:43;22.00;69.30
48208;DHT22;33997;53.278;9.708;2022-09-09T11:43:15;22.00;71.00
48208;DHT22;33997;53.278;9.708;2022-09-09T11:45:43;21.40;70.70
48208;DHT22;33997;53.278;9.708;2022-09-09T11:48:42;21.10;71.80
48208;DHT22;33997;53.278;9.708;2022-09-09T11:56:25;20.00;80.90
48208;DHT22;33997;53.278;9.708;2022-09-09T11:59:21;19.30;82.20
48208;DHT22;33997;53.278;9.708;2022-09-09T12:02:08;18.90;83.00
48208;DHT22;33997;53.278;9.708;2022-09-09T12:05:01;18.60;85.70
48208;DHT22;33997;53.278;9.708;2022-09-09T12:07:49;18.50;88.10
48208;DHT22;33997;53.278;9.708;2022-09-09T12:10:34;18.30;88.80
48208;DHT22;33997;53.278;9.708;2022-09-09T12:13:21;18.10;89.40
48208;DHT22;33997;53.278;9.708;2022-09-09T12:15:56;18.00;90.00
48208;DHT22;33997;53.278;9.708;2022-09-09T12:18:32;17.90;90.10
48208;DHT22;33997;53.278;9.708;2022-09-09T12:23:44;17.70;91.40
48208;DHT22;33997;53.278;9.708;2022-09-09T12:26:34;17.70;92.10
48208;DHT22;33997;53.278;9.708;2022-09-09T12:31:47;17.50;92.80
48208;DHT22;33997;53.278;9.708;2022-09-09T12:34:17;17.40;92.80
48208;DHT22;33997;53.278;9.708;2022-09-09T12:36:49;17.40;93.00
48208;DHT22;33997;53.278;9.708;2022-09-09T12:39:38;17.30;93.30
48208;DHT22;33997;53.278;9.708;2022-09-09T12:42:16;17.20;93.30
48208;DHT22;33997;53.278;9.708;2022-09-09T12:45:00;17.10;93.60
48208;DHT22;33997;53.278;9.708;2022-09-09T12:47:42;17.10;93.80
48208;DHT22;33997;53.278;9.708;2022-09-09T12:50:26;17.10;94.10
48208;DHT22;33997;53.278;9.708;2022-09-09T12:52:58;17.00;94.40
48208;DHT22;33997;53.278;9.708;2022-09-09T12:55:28;17.00;94.80
48208;DHT22;33997;53.278;9.708;2022-09-09T12:57:56;17.00;94.90
48208;DHT22;33997;53.278;9.708;2022-09-09T13:00:24;17.10;95.10
48208;DHT22;33997;53.278;9.708;2022-09-09T13:02:58;17.10;95.30
48208;DHT22;33997;53.278;9.708;2022-09-09T13:05:27;17.10;95.30
48208;DHT22;33997;53.278;9.708;2022-09-09T13:08:01;17.00;95.20
48208;DHT22;33997;53.278;9.708;2022-09-09T13:10:29;17.00;95.20
48208;DHT22;33997;53.278;9.708;2022-09-09T13:12:55;16.90;95.10
48208;DHT22;33997;53.278;9.708;2022-09-09T13:15:24;16.80;95.00
48208;DHT22;33997;53.278;9.708;2022-09-09T13:17:59;16.80;94.90
48208;DHT22;33997;53.278;9.708;2022-09-09T13:20:27;16.60;94.70
48208;DHT22;33997;53.278;9.708;2022-09-09T13:22:54;16.60;94.50
48208;DHT22;33997;53.278;9.708;2022-09-09T13:25:28;16.50;94.40
48208;DHT22;33997;53.278;9.708;2022-09-09T13:27:57;16.50;94.40
48208;DHT22;33997;53.278;9.708;2022-09-09T13:30:25;16.40;94.60
48208;DHT22;33997;53.278;9.708;2022-09-09T13:35:35;16.30;95.00
48208;DHT22;33997;53.278;9.708;2022-09-09T13:38:08;16.40;95.40
48208;DHT22;33997;53.278;9.708;2022-09-09T13:40:35;16.40;95.50
48208;DHT22;33997;53.278;9.708;2022-09-09T13:43:01;16.30;95.40
48208;DHT22;33997;53.278;9.708;2022-09-09T13:45:27;16.30;95.50
48208;DHT22;33997;53.278;9.708;2022-09-09T13:47:54;16.20;95.40
48208;DHT22;33997;53.278;9.708;2022-09-09T13:50:28;16.10;95.40
48208;DHT22;33997;53.278;9.708;2022-09-09T13:52:56;16.10;95.10
48208;DHT22;33997;53.278;9.708;2022-09-09T13:55:25;16.00;95.50
48208;DHT22;33997;53.278;9.708;2022-09-09T13:58:00;15.90;95.30
48208;DHT22;33997;53.278;9.708;2022-09-09T14:00:33;15.80;95.40
48208;DHT22;33997;53.278;9.708;2022-09-09T14:02:59;15.80;95.50
48208;DHT22;33997;53.278;9.708;2022-09-09T14:05:30;15.60;95.20
48208;DHT22;33997;53.278;9.708;2022-09-09T14:07:57;15.50;95.30
48208;DHT22;33997;53.278;9.708;2022-09-09T14:10:23;15.50;95.30
48208;DHT22;33997;53.278;9.708;2022-09-09T14:12:48;15.50;95.10
48208;DHT22;33997;53.278;9.708;2022-09-09T14:15:14;15.50;95.20
48208;DHT22;33997;53.278;9.708;2022-09-09T14:17:39;15.50;95.20
48208;DHT22;33997;53.278;9.708;2022-09-09T14:20:06;15.60;95.10
48208;DHT22;33997;53.278;9.708;2022-09-09T14:22:35;15.70;95.20
48208;DHT22;33997;53.278;9.708;2022-09-09T14:25:00;15.80;95.20
48208;DHT22;33997;53.278;9.708;2022-09-09T14:27:26;15.80;94.50
48208;DHT22;33997;53.278;9.708;2022-09-09T14:29:52;15.90;94.80
48208;DHT22;33997;53.278;9.708;2022-09-09T14:32:18;16.00;94.70
48208;DHT22;33997;53.278;9.708;2022-09-09T14:34:43;16.10;94.50
48208;DHT22;33997;53.278;9.708;2022-09-09T14:37:09;16.30;94.50
48208;DHT22;33997;53.278;9.708;2022-09-09T14:39:34;16.30;94.10
48208;DHT22;33997;53.278;9.708;2022-09-09T14:42:00;16.40;93.90
48208;DHT22;33997;53.278;9.708;2022-09-09T14:44:26;16.40;93.70
48208;DHT22;33997;53.278;9.708;2022-09-09T14:46:51;16.50;93.70
48208;DHT22;33997;53.278;9.708;2022-09-09T14:49:17;16.60;93.80
48208;DHT22;33997;53.278;9.708;2022-09-09T14:51:42;16.70;93.30
48208;DHT22;33997;53.278;9.708;2022-09-09T14:54:07;16.80;92.80
48208;DHT22;33997;53.278;9.708;2022-09-09T14:56:34;16.80;92.30
48208;DHT22;33997;53.278;9.708;2022-09-09T14:59:00;16.90;92.20
48208;DHT22;33997;53.278;9.708;2022-09-09T15:01:27;16.90;91.70
48208;DHT22;33997;53.278;9.708;2022-09-09T15:03:54;17.10;91.90
48208;DHT22;33997;53.278;9.708;2022-09-09T15:06:22;17.40;91.60
48208;DHT22;33997;53.278;9.708;2022-09-09T15:08:50;18.00;92.00
48208;DHT22;33997;53.278;9.708;2022-09-09T15:11:16;18.60;88.90
48208;DHT22;33997;53.278;9.708;2022-09-09T15:13:43;19.30;86.70
48208;DHT22;33997;53.278;9.708;2022-09-09T15:16:13;19.60;84.30
48208;DHT22;33997;53.278;9.708;2022-09-09T15:18:39;20.50;85.30
48208;DHT22;33997;53.278;9.708;2022-09-09T15:21:08;20.50;79.70
48208;DHT22;33997;53.278;9.708;2022-09-09T15:23:35;21.30;81.00
48208;DHT22;33997;53.278;9.708;2022-09-09T15:26:01;21.40;78.10
48208;DHT22;33997;53.278;9.708;2022-09-09T15:28:27;21.50;75.60
48208;DHT22;33997;53.278;9.708;2022-09-09T15:30:53;20.90;75.90
48208;DHT22;33997;53.278;9.708;2022-09-09T15:33:21;20.60;76.70
48208;DHT22;33997;53.278;9.708;2022-09-09T15:35:46;20.50;76.60
48208;DHT22;33997;53.278;9.708;2022-09-09T15:38:12;20.50;79.70
48208;DHT22;33997;53.278;9.708;2022-09-09T15:40:39;20.20;79.00
48208;DHT22;33997;53.278;9.708;2022-09-09T15:43:05;19.70;79.80
48208;DHT22;33997;53.278;9.708;2022-09-09T15:45:31;19.50;81.20
48208;DHT22;33997;53.278;9.708;2022-09-09T15:48:02;19.00;80.80
48208;DHT22;33997;53.278;9.708;2022-09-09T15:50:28;18.80;83.10
48208;DHT22;33997;53.278;9.708;2022-09-09T15:52:55;18.40;84.50
48208;DHT22;33997;53.278;9.708;2022-09-09T15:55:21;18.00;85.20
48208;DHT22;33997;53.278;9.708;2022-09-09T15:57:46;18.00;85.70
48208;DHT22;33997;53.278;9.708;2022-09-09T16:00:12;17.80;85.80
48208;DHT22;33997;53.278;9.708;2022-09-09T16:02:39;17.60;86.60
48208;DHT22;33997;53.278;9.708;2022-09-09T16:05:05;17.40;86.20
48208;DHT22;33997;53.278;9.708;2022-09-09T16:07:30;17.20;87.00
48208;DHT22;33997;53.278;9.708;2022-09-09T16:09:56;17.00;87.10
48208;DHT22;33997;53.278;9.708;2022-09-09T16:12:22;16.90;87.90
48208;DHT22;33997;53.278;9.708;2022-09-09T16:14:47;16.80;88.50
48208;DHT22;33997;53.278;9.708;2022-09-09T16:17:13;16.70;89.10
48208;DHT22;33997;53.278;9.708;2022-09-09T16:19:39;16.60;89.30
48208;DHT22;33997;53.278;9.708;2022-09-09T16:22:05;16.50;89.50
48208;DHT22;33997;53.278;9.708;2022-09-09T16:24:31;16.30;90.30
48208;DHT22;33997;53.278;9.708;2022-09-09T16:26:57;16.30;90.60
48208;DHT22;33997;53.278;9.708;2022-09-09T16:29:23;16.20;90.70
48208;DHT22;33997;53.278;9.708;2022-09-09T16:31:49;16.10;91.00
48208;DHT22;33997;53.278;9.708;2022-09-09T16:34:17;16.00;91.20
48208;DHT22;33997;53.278;9.708;2022-09-09T16:36:43;16.00;91.60
48208;DHT22;33997;53.278;9.708;2022-09-09T16:39:12;15.90;91.70
48208;DHT22;33997;53.278;9.708;2022-09-09T16:41:39;15.90;91.90
48208;DHT22;33997;53.278;9.708;2022-09-09T16:44:07;15.90;92.20
48208;DHT22;33997;53.278;9.708;2022-09-09T16:46:37;15.80;92.40
48208;DHT22;33997;53.278;9.708;2022-09-09T16:49:06;15.80;92.60
48208;DHT22;33997;53.278;9.708;2022-09-09T16:51:36;15.80;92.90
48208;DHT22;33997;53.278;9.708;2022-09-09T16:54:04;15.80;93.40
48208;DHT22;33997;53.278;9.708;2022-09-09T16:56:33;15.70;93.60
48208;DHT22;33997;53.278;9.708;2022-09-09T16:59:02;15.70;94.00
48208;DHT22;33997;53.278;9.708;2022-09-09T17:01:30;15.60;94.40
48208;DHT22;33997;53.278;9.708;2022-09-09T17:03:58;15.50;94.90
48208;DHT22;33997;53.278;9.708;2022-09-09T17:06:24;15.50;95.10
48208;DHT22;33997;53.278;9.708;2022-09-09T17:08:54;15.50;95.30